Durham, NC (27701)

10:18 AM EST on January 20, 2017 (GMT -0500)
Trinity Park | | Change Station

Elev 400 ft 36.01 °N, 78.91 °W | Updated 4 seconds ago

Overcast
Overcast
47.9 °F
Feels Like 48 °F
N
0.0
Wind Variable Wind from North
Gusts 0.0 mph

Today
High -- | Low -- °F
--% Chance of Precip.
Yesterday
High -- | Low -- °F
Precip. -- in
Pressure 29.92 in
Visibility 3.0 miles
Clouds Mostly Cloudy 2500 ft
Overcast 3500 ft
Windchill 48 °F
Dew Point 47 °F
Humidity 96%
Rainfall 0.13 in
Snow Depth Not available.
7:23 AM 5:30 PM
Last Quarter, 43% visible
METAR KRDU 201451Z VRB03KT 3SM -RA BR BKN025 OVC035 10/08 A2992 RMK AO2 SLP131 P0004 60009 T01000083 56005
Pressure 29.92 in
Visibility 3.0 miles
Clouds Mostly Cloudy 2500 ft
Overcast 3500 ft
Windchill 48 °F
Dew Point 47 °F
Humidity 96%
Rainfall 0.13 in
Snow Depth Not available.
7:23 AM 5:30 PM
Last Quarter, 43% visible
METAR KRDU 201451Z VRB03KT 3SM -RA BR BKN025 OVC035 10/08 A2992 RMK AO2 SLP131 P0004 60009 T01000083 56005

Get Your Daily Forecast Email!

Thanks for signing up!

Be on the lookout for a verification email in your inbox.

You'll start receiving the daily forecast at 8 AM.

×

10-Day Weather Forecast

Almanac

Astronomy

Jan. 20, 2017 Rise Set
Actual Time
Civil Twilight
Nautical Twilight
Astronomical Twilight
Moon
Length of Visible Light
Length of Day
Tomorrow will be .
, % of the Moon is Illuminated

Today's Extremes

State Highs State Lows

Community

WunderPhotos

Upload Photos

1,962,540 photos uploaded!

WunderBlog® & News

Nearby

Air Quality

  Air Quality AQ Index Pollutant
Not available.

Snow Depth

Station Depth Elevation

Earthquake Activity

City Distance Mag. Time & Date
Minimum magnitude displayed is 2.5.

Coastal Water Temperatures

Place Temperature

Stations

Nearby Weather Stations

Station Location Temp. Windchill Dew Point Humidity Wind Precip. Elev Updated Type
                   

Watches & Warnings

There are currently no watches in effect.